Terminal Aerodrome Forecast
Issued by NWS Charleston, WV

Current Version | Previous Version | Graphics & Text | Print | Product List | Glossary On
Versions: 1 2 3 4 5 6 7 8 9 10 11 12 13 14 15 16 17 18 19 20 21 22 23 24
966
FTUS41 KRLX 140649 AAA
TAFBKW
TAF AMD
KBKW 140649Z 1407/1506 14004KT 6SM BR SCT006
      TEMPO 1407/1411 4SM BR BKN005
     FM141400 23004KT P6SM SCT050
     FM141800 28006KT P6SM FEW250
     FM142300 22005KT P6SM FEW250=

USA.gov is the U.S. government's official web portal to all federal, state and local government web resources and services.